Historyczne dane pomiarowe

Dodano dane terminowe – wersja testowa.

Dane z okresu 1951-2019

Wersja bazy: 1.34 [2019-03-16, lista zmian], aktualizacja planowana na 2019-04-15

Dane meteo z obszaru Polski uzyskane na podstawie danych udostępnionych przez Instytut Meteorologii i Gospodarki Wodnej – Państwowy Instytut Badawczy.

 

Wybierz Datę:    

       

TemperaturaWilgotnośćZachmurzenieWiatrCiśnienieWidzialnośćZjawiska
 Data    tng td wb rh cc ccl cl cm ch dir g1 g2 mslp ppp      
1973-04-18 00:00:00 -7.2--- -8.5 -7.390wxwx15wx--- 827.8 2.3---wxw1
1973-04-18 01:00:00 -7.2------wxwx15wx--- 827.0----wxw1
1973-04-18 02:00:00 -8.0------wxwx15wx--- 826.8----wxw1
1973-04-18 03:00:00 -8.2----10.0 -8.487wxwx14wx--- 826.5----wxw1
1973-04-18 04:00:00 -8.3------wxwxwx18wx--- 825.8----wxw1
1973-04-18 05:00:00 -8.6------wxwxwx18wx--- 825.7----wxw1
1973-04-18 06:00:00 -8.3----10.2 -8.586wxwxwx14wx--- 826.7 1.3---wxw1
1973-04-18 07:00:00 -7.6------wxwxwx15wx--- 826.7----wxw1
1973-04-18 08:00:00 -7.8------wxwxwx12wx--- 826.3----wxw1
1973-04-18 09:00:00 -7.3--- -7.8 -7.296wxwxwx10wx--- 826.7----wxw1
1973-04-18 10:00:00 -7.2------wxwxwxwx12wx--- 826.5----wxw1
1973-04-18 11:00:00 -6.7------wxwx11wx--- 826.5----wxw1
1973-04-18 12:00:00 -6.5--- -6.6 -6.399wxwxwx10wx--- 826.4 0.2---wxw1
1973-04-18 13:00:00 -6.7------wxwxwx14wx--- 826.2----wxw1
1973-04-18 14:00:00 -6.4------wxwxwx15wx--- 825.7----wxw1
1973-04-18 15:00:00 -6.4--- -6.5 -6.299wxwxwx12wx--- 825.7----wxw1
1973-04-18 16:00:00 -6.5------wxwxwx10wx--- 825.7----wxw1
1973-04-18 17:00:00 -6.8------wxwx13wx--- 825.5----wxw1
1973-04-18 18:00:00 -6.9--- -7.0 -6.799wxwxwx15wx--- 825.5 0.4---wxw1
1973-04-18 19:00:00 -6.8------wxwxwx15wx--- 825.6----wxw1
1973-04-18 20:00:00 -6.5------wxwx14wx--- 825.4----wxw1
1973-04-18 21:00:00 -6.4--- -6.5 -6.299wxwx15wx--- 825.2----wxw1
1973-04-18 22:00:00 -6.3------wxwx15wx--- 824.5----wxw1
1973-04-18 23:00:00 -6.3------wxwx12wx--- 824.2----wxw1

 

Źródłem pochodzenia danych jest Instytut Meteorologii i Gospodarki Wodnej – Państwowy Instytut Badawczy. Dane Instytutu Meteorologii i Gospodarki Wodnej – Państwowego Instytutu Badawczego zostały przetworzone.

Dane źródłowe można odnaleźć na stronie https://dane.imgw.pl